createdAt,value
2023-04-17T00:03:43.236Z,8.42
2023-04-17T00:08:50.819Z,8.41
2023-04-17T00:13:58.429Z,8.41
2023-04-17T00:19:05.856Z,8.37
2023-04-17T00:24:13.450Z,8.33
2023-04-17T00:29:20.966Z,8.34
2023-04-17T00:34:28.688Z,8.31
2023-04-17T00:39:36.752Z,8.26
2023-04-17T00:44:44.962Z,8.28
2023-04-17T00:49:53.340Z,8.30
2023-04-17T00:55:01.529Z,8.27
2023-04-17T01:00:11.488Z,8.18
2023-04-17T01:05:19.082Z,8.08
2023-04-17T01:10:27.176Z,8.00
2023-04-17T01:15:37.155Z,7.94
2023-04-17T01:20:44.461Z,7.89
2023-04-17T01:25:52.364Z,7.89
2023-04-17T01:30:59.664Z,7.92
2023-04-17T01:36:08.353Z,7.92
2023-04-17T01:41:15.732Z,7.94
2023-04-17T01:46:23.139Z,7.94
2023-04-17T01:51:31.561Z,7.90
2023-04-17T01:56:38.854Z,7.85
2023-04-17T02:01:47.284Z,7.80
2023-04-17T02:06:54.676Z,7.77
2023-04-17T02:12:02.742Z,7.75
2023-04-17T02:17:10.041Z,7.72
2023-04-17T02:22:18.772Z,7.76
2023-04-17T02:27:26.298Z,7.81
2023-04-17T02:32:33.751Z,7.83
2023-04-17T02:37:41.117Z,7.76
2023-04-17T02:42:48.431Z,7.69
2023-04-17T02:47:56.248Z,7.69
2023-04-17T02:53:04.240Z,7.72
2023-04-17T02:58:11.797Z,7.70
2023-04-17T03:03:19.511Z,7.70
2023-04-17T03:08:32.519Z,7.66
2023-04-17T03:13:40.572Z,7.61
2023-04-17T03:18:47.939Z,7.59
2023-04-17T03:23:55.445Z,7.64
2023-04-17T03:29:03.249Z,7.63
2023-04-17T03:34:10.976Z,7.63
2023-04-17T03:39:18.282Z,7.64
2023-04-17T03:44:25.385Z,7.64
2023-04-17T03:49:32.993Z,7.65
2023-04-17T03:54:40.299Z,7.68
2023-04-17T03:59:47.499Z,7.70
2023-04-17T04:04:55.483Z,7.74
2023-04-17T04:10:03.055Z,7.74
2023-04-17T04:15:12.534Z,7.72
2023-04-17T04:20:19.779Z,7.69
2023-04-17T04:25:28.997Z,7.59
2023-04-17T04:30:39.007Z,7.54
2023-04-17T04:35:47.704Z,7.51
2023-04-17T04:41:01.759Z,7.52
2023-04-17T04:46:09.186Z,7.55
2023-04-17T04:51:19.182Z,7.58
2023-04-17T04:56:27.135Z,7.64
2023-04-17T05:01:34.435Z,7.69
2023-04-17T05:06:42.513Z,7.72
2023-04-17T05:11:49.661Z,7.75
2023-04-17T05:16:57.882Z,7.82
2023-04-17T05:22:05.673Z,7.88
2023-04-17T05:27:12.990Z,7.94
2023-04-17T05:32:20.251Z,8.01
2023-04-17T05:37:27.389Z,8.08
2023-04-17T05:42:33.075Z,8.15
2023-04-17T05:47:40.436Z,8.22
2023-04-17T05:52:48.854Z,8.30
2023-04-17T05:57:58.128Z,8.40
2023-04-17T06:03:06.565Z,8.55
2023-04-17T06:08:14.786Z,8.64
2023-04-17T06:13:22.529Z,8.65
2023-04-17T06:18:30.266Z,8.66
2023-04-17T06:23:37.860Z,8.64
2023-04-17T06:28:45.005Z,8.58
2023-04-17T06:33:52.856Z,8.59
2023-04-17T06:39:00.006Z,8.67
2023-04-17T06:44:07.898Z,8.89
2023-04-17T06:49:15.135Z,8.94
2023-04-17T06:54:22.486Z,8.94
2023-04-17T07:05:11.622Z,9.24
2023-04-17T07:10:20.439Z,9.46
2023-04-17T07:15:30.799Z,9.68
2023-04-17T07:20:38.342Z,9.78
2023-04-17T07:25:45.803Z,9.85
2023-04-17T07:30:55.280Z,9.91
2023-04-17T07:36:02.897Z,9.97
2023-04-17T07:41:12.215Z,10.08
2023-04-17T07:46:20.748Z,10.28
2023-04-17T07:51:28.818Z,10.40
2023-04-17T07:56:36.784Z,10.40
2023-04-17T08:01:44.767Z,10.33
2023-04-17T08:06:52.775Z,10.34
2023-04-17T08:12:02.298Z,10.38
2023-04-17T08:17:10.390Z,10.40
2023-04-17T08:22:19.988Z,10.48
2023-04-17T08:27:27.435Z,10.53
2023-04-17T08:32:41.509Z,10.48
2023-04-17T08:38:27.712Z,10.49
2023-04-17T08:43:38.262Z,10.59
2023-04-17T08:48:45.749Z,10.61
2023-04-17T08:53:53.557Z,10.58
2023-04-17T08:59:02.079Z,10.50
2023-04-17T09:04:10.533Z,10.42
2023-04-17T09:09:18.458Z,10.40
2023-04-17T09:14:34.340Z,10.46
2023-04-17T09:20:02.343Z,10.54
2023-04-17T09:25:18.877Z,10.62
2023-04-17T09:30:28.522Z,10.70
2023-04-17T09:35:39.874Z,10.78
2023-04-17T09:40:48.214Z,10.92
2023-04-17T09:45:55.719Z,11.07
2023-04-17T09:51:03.850Z,11.21
2023-04-17T09:56:13.765Z,11.32
2023-04-17T10:01:21.465Z,11.38
2023-04-17T10:06:32.908Z,11.44
2023-04-17T10:11:43.001Z,11.48
2023-04-17T10:16:51.066Z,11.48
2023-04-17T10:22:32.312Z,11.55
2023-04-17T10:27:53.853Z,11.63
2023-04-17T10:33:22.834Z,11.75
2023-04-17T10:38:38.047Z,11.85
2023-04-17T10:43:47.381Z,11.89
2023-04-17T10:48:56.741Z,11.90
2023-04-17T10:54:05.847Z,11.88
2023-04-17T10:59:14.872Z,11.85
2023-04-17T11:04:24.728Z,11.84
2023-04-17T11:09:32.404Z,11.85
2023-04-17T11:14:44.165Z,11.80
2023-04-17T11:19:53.946Z,11.77
2023-04-17T11:25:01.819Z,11.74
2023-04-17T11:30:11.601Z,11.68
2023-04-17T11:35:19.444Z,11.62
2023-04-17T11:40:27.463Z,11.58
2023-04-17T11:45:37.447Z,11.58
2023-04-17T11:50:46.580Z,11.63
2023-04-17T11:56:15.494Z,11.68
2023-04-17T12:01:25.655Z,11.65
2023-04-17T12:06:40.601Z,11.60
2023-04-17T12:11:48.973Z,11.58
2023-04-17T12:16:56.700Z,11.55
2023-04-17T12:22:04.843Z,11.50
2023-04-17T12:27:12.423Z,11.39
2023-04-17T12:32:20.034Z,11.30
2023-04-17T12:37:27.705Z,11.21
2023-04-17T12:42:46.190Z,11.09
2023-04-17T12:47:57.328Z,11.06
2023-04-17T12:53:05.123Z,11.00
2023-04-17T12:58:14.560Z,10.99
2023-04-17T13:03:22.876Z,10.96
2023-04-17T13:08:31.600Z,10.98
2023-04-17T13:13:39.299Z,11.02
2023-04-17T13:18:46.775Z,10.99
2023-04-17T13:23:54.326Z,10.93
2023-04-17T13:29:02.067Z,10.85
2023-04-17T13:34:09.782Z,10.87
2023-04-17T13:39:17.515Z,10.89
2023-04-17T13:44:25.008Z,10.91
2023-04-17T13:49:32.712Z,10.94
2023-04-17T13:54:40.402Z,10.95
2023-04-17T13:59:48.181Z,10.90
2023-04-17T14:04:55.628Z,10.91
2023-04-17T14:10:03.209Z,10.98
2023-04-17T14:15:14.146Z,11.00
2023-04-17T14:20:21.716Z,10.96
2023-04-17T14:25:29.361Z,10.86
2023-04-17T14:30:36.897Z,10.84
2023-04-17T14:35:44.335Z,10.82
2023-04-17T14:40:51.942Z,10.71
2023-04-17T14:45:59.482Z,10.64
2023-04-17T14:51:10.405Z,10.63
2023-04-17T14:56:17.986Z,10.60
2023-04-17T15:01:25.753Z,10.44
2023-04-17T15:06:33.409Z,10.27
2023-04-17T15:11:40.977Z,10.15
2023-04-17T15:16:49.159Z,10.06
2023-04-17T15:21:56.768Z,10.01
2023-04-17T15:27:04.459Z,10.07
2023-04-17T15:32:11.991Z,10.18
2023-04-17T15:37:19.710Z,10.16
2023-04-17T15:42:28.099Z,10.18
2023-04-17T15:47:35.700Z,10.20
2023-04-17T15:52:43.352Z,10.19
2023-04-17T15:57:50.757Z,10.18
2023-04-17T16:02:58.648Z,10.14
2023-04-17T16:08:06.569Z,10.11
2023-04-17T16:13:16.119Z,10.10
2023-04-17T16:18:23.646Z,10.12
2023-04-17T16:23:31.965Z,10.11
2023-04-17T16:28:39.858Z,10.08
2023-04-17T16:33:47.416Z,10.10
2023-04-17T16:38:55.108Z,10.13
2023-04-17T16:44:03.060Z,10.12
2023-04-17T16:49:11.817Z,10.07
2023-04-17T16:54:21.792Z,10.03
2023-04-17T16:59:29.832Z,10.02
2023-04-17T17:04:37.867Z,10.02
2023-04-17T17:09:45.803Z,9.96
2023-04-17T17:14:53.941Z,9.88
2023-04-17T17:20:01.715Z,9.85
2023-04-17T17:25:11.604Z,9.84
2023-04-17T17:30:20.464Z,9.81
2023-04-17T17:35:29.321Z,9.80
2023-04-17T17:40:37.057Z,9.76
2023-04-17T17:45:44.404Z,9.77
2023-04-17T17:50:54.502Z,9.75
2023-04-17T17:56:01.937Z,9.73
2023-04-17T18:01:09.582Z,9.74
2023-04-17T18:06:17.187Z,9.71
2023-04-17T18:11:25.153Z,9.66
2023-04-17T18:16:33.393Z,9.62
2023-04-17T18:21:41.282Z,9.62
2023-04-17T18:26:49.200Z,9.61
2023-04-17T18:31:56.736Z,9.57
2023-04-17T18:37:04.131Z,9.54
2023-04-17T18:42:11.594Z,9.55
2023-04-17T18:47:19.026Z,9.54
2023-04-17T18:52:26.968Z,9.49
2023-04-17T18:57:34.677Z,9.44
2023-04-17T19:02:42.266Z,9.40
2023-04-17T19:07:51.647Z,9.34
2023-04-17T19:12:59.467Z,9.26
2023-04-17T19:18:09.461Z,9.23
2023-04-17T19:23:17.542Z,9.18
2023-04-17T19:28:26.382Z,9.14
2023-04-17T19:33:35.755Z,9.13
2023-04-17T19:38:44.339Z,9.14
2023-04-17T19:43:54.513Z,9.12
2023-04-17T19:49:02.411Z,9.12
2023-04-17T19:54:12.446Z,9.10
2023-04-17T19:59:20.225Z,9.08
2023-04-17T20:04:27.992Z,9.05
2023-04-17T20:09:35.448Z,9.07
2023-04-17T20:14:43.095Z,9.13
2023-04-17T20:19:50.780Z,9.16
2023-04-17T20:24:58.370Z,9.12
2023-04-17T20:30:06.517Z,9.08
2023-04-17T20:35:14.141Z,9.02
2023-04-17T20:40:21.906Z,8.94
2023-04-17T20:45:29.982Z,8.89
2023-04-17T20:50:37.489Z,8.88
2023-04-17T20:55:47.243Z,8.85
2023-04-17T21:01:01.126Z,8.84
2023-04-17T21:06:10.154Z,8.80
2023-04-17T21:11:17.792Z,8.80
2023-04-17T21:16:25.271Z,8.79
2023-04-17T21:21:32.855Z,8.82
2023-04-17T21:26:40.375Z,8.82
2023-04-17T21:31:47.675Z,8.85
2023-04-17T21:36:56.257Z,8.87
2023-04-17T21:42:03.878Z,8.84
2023-04-17T21:47:11.774Z,8.85
2023-04-17T21:52:20.359Z,8.92
2023-04-17T21:57:28.027Z,8.96
2023-04-17T22:02:35.681Z,8.98
2023-04-17T22:07:53.773Z,8.98
2023-04-17T22:13:03.117Z,8.98
2023-04-17T22:18:10.772Z,8.94
2023-04-17T22:23:18.463Z,8.94
2023-04-17T22:28:26.530Z,8.97
2023-04-17T22:33:34.417Z,8.99
2023-04-17T22:38:42.029Z,8.98
2023-04-17T22:43:52.592Z,8.98
2023-04-17T22:49:01.022Z,8.99
2023-04-17T22:54:21.390Z,8.98
2023-04-17T22:59:30.840Z,8.99
2023-04-17T23:04:38.691Z,9.01
2023-04-17T23:10:38.699Z,9.04
2023-04-17T23:15:46.081Z,9.04
2023-04-17T23:20:54.004Z,9.03
2023-04-17T23:26:02.002Z,9.03
2023-04-17T23:31:09.715Z,9.05
2023-04-17T23:36:17.957Z,9.06
2023-04-17T23:41:27.422Z,9.06
2023-04-17T23:46:35.177Z,9.08
2023-04-17T23:51:42.718Z,9.10
2023-04-17T23:56:50.483Z,9.11
